sensor_id;sensor_type;location;lat;lon;timestamp;P1;durP1;ratioP1;P2;durP2;ratioP2
20619;SDS011;10469;42.720;23.252;2023-09-07T00:01:34;13.93;;;8.77;;
20619;SDS011;10469;42.720;23.252;2023-09-07T00:03:59;11.60;;;8.55;;
20619;SDS011;10469;42.720;23.252;2023-09-07T00:06:25;10.20;;;8.77;;
20619;SDS011;10469;42.720;23.252;2023-09-07T00:08:51;12.23;;;8.65;;
20619;SDS011;10469;42.720;23.252;2023-09-07T00:11:17;11.05;;;8.55;;
20619;SDS011;10469;42.720;23.252;2023-09-07T00:13:43;14.82;;;9.10;;
20619;SDS011;10469;42.720;23.252;2023-09-07T00:16:08;11.32;;;9.05;;
20619;SDS011;10469;42.720;23.252;2023-09-07T00:18:34;11.77;;;7.95;;
20619;SDS011;10469;42.720;23.252;2023-09-07T00:21:00;10.02;;;8.13;;
20619;SDS011;10469;42.720;23.252;2023-09-07T00:23:26;10.63;;;8.38;;
20619;SDS011;10469;42.720;23.252;2023-09-07T00:25:52;10.02;;;8.15;;
20619;SDS011;10469;42.720;23.252;2023-09-07T00:28:18;10.45;;;8.93;;
20619;SDS011;10469;42.720;23.252;2023-09-07T00:30:43;14.40;;;8.38;;
20619;SDS011;10469;42.720;23.252;2023-09-07T00:33:09;11.35;;;8.45;;
20619;SDS011;10469;42.720;23.252;2023-09-07T00:35:36;9.77;;;8.63;;
20619;SDS011;10469;42.720;23.252;2023-09-07T00:38:01;12.30;;;8.50;;
20619;SDS011;10469;42.720;23.252;2023-09-07T00:40:28;12.95;;;8.57;;
20619;SDS011;10469;42.720;23.252;2023-09-07T00:42:54;11.20;;;8.80;;
20619;SDS011;10469;42.720;23.252;2023-09-07T00:45:19;13.50;;;8.63;;
20619;SDS011;10469;42.720;23.252;2023-09-07T00:47:45;11.77;;;8.70;;
20619;SDS011;10469;42.720;23.252;2023-09-07T00:50:11;15.40;;;9.25;;
20619;SDS011;10469;42.720;23.252;2023-09-07T00:52:39;14.35;;;9.35;;
20619;SDS011;10469;42.720;23.252;2023-09-07T00:55:08;13.15;;;9.60;;
20619;SDS011;10469;42.720;23.252;2023-09-07T00:57:37;12.13;;;9.13;;
20619;SDS011;10469;42.720;23.252;2023-09-07T01:00:05;13.38;;;9.30;;
20619;SDS011;10469;42.720;23.252;2023-09-07T01:02:32;15.85;;;10.02;;
20619;SDS011;10469;42.720;23.252;2023-09-07T01:04:58;13.10;;;9.98;;
20619;SDS011;10469;42.720;23.252;2023-09-07T01:07:25;16.77;;;10.02;;
20619;SDS011;10469;42.720;23.252;2023-09-07T01:09:57;12.82;;;10.63;;
20619;SDS011;10469;42.720;23.252;2023-09-07T01:12:25;16.05;;;10.95;;
20619;SDS011;10469;42.720;23.252;2023-09-07T01:14:52;11.30;;;10.10;;
20619;SDS011;10469;42.720;23.252;2023-09-07T01:17:18;15.82;;;10.77;;
20619;SDS011;10469;42.720;23.252;2023-09-07T01:19:46;14.73;;;11.45;;
20619;SDS011;10469;42.720;23.252;2023-09-07T01:22:16;15.25;;;10.70;;
20619;SDS011;10469;42.720;23.252;2023-09-07T01:24:45;15.43;;;11.20;;
20619;SDS011;10469;42.720;23.252;2023-09-07T01:27:12;15.63;;;11.57;;
20619;SDS011;10469;42.720;23.252;2023-09-07T01:29:40;13.15;;;11.75;;
20619;SDS011;10469;42.720;23.252;2023-09-07T01:32:06;15.40;;;11.63;;
20619;SDS011;10469;42.720;23.252;2023-09-07T01:34:35;15.73;;;12.10;;
20619;SDS011;10469;42.720;23.252;2023-09-07T01:37:01;17.33;;;12.75;;
20619;SDS011;10469;42.720;23.252;2023-09-07T01:39:26;18.27;;;12.30;;
20619;SDS011;10469;42.720;23.252;2023-09-07T01:41:52;15.65;;;13.02;;
20619;SDS011;10469;42.720;23.252;2023-09-07T01:44:18;13.73;;;12.23;;
20619;SDS011;10469;42.720;23.252;2023-09-07T01:46:43;13.98;;;12.48;;
20619;SDS011;10469;42.720;23.252;2023-09-07T01:49:09;21.83;;;13.02;;
20619;SDS011;10469;42.720;23.252;2023-09-07T01:51:35;15.90;;;12.65;;
20619;SDS011;10469;42.720;23.252;2023-09-07T01:54:00;16.55;;;12.93;;
20619;SDS011;10469;42.720;23.252;2023-09-07T01:56:26;16.20;;;13.35;;
20619;SDS011;10469;42.720;23.252;2023-09-07T01:58:52;17.42;;;13.18;;
20619;SDS011;10469;42.720;23.252;2023-09-07T02:01:24;17.20;;;13.35;;
20619;SDS011;10469;42.720;23.252;2023-09-07T02:03:50;21.27;;;14.18;;
20619;SDS011;10469;42.720;23.252;2023-09-07T02:06:16;16.90;;;13.55;;
20619;SDS011;10469;42.720;23.252;2023-09-07T02:08:42;18.77;;;13.32;;
20619;SDS011;10469;42.720;23.252;2023-09-07T02:11:08;22.10;;;14.38;;
20619;SDS011;10469;42.720;23.252;2023-09-07T02:13:33;19.40;;;14.38;;
20619;SDS011;10469;42.720;23.252;2023-09-07T02:16:03;21.05;;;13.60;;
20619;SDS011;10469;42.720;23.252;2023-09-07T02:18:32;22.85;;;13.82;;
20619;SDS011;10469;42.720;23.252;2023-09-07T02:21:01;18.95;;;13.57;;
20619;SDS011;10469;42.720;23.252;2023-09-07T02:23:31;17.73;;;14.30;;
20619;SDS011;10469;42.720;23.252;2023-09-07T02:25:57;16.98;;;14.25;;
20619;SDS011;10469;42.720;23.252;2023-09-07T02:28:24;15.27;;;13.32;;
20619;SDS011;10469;42.720;23.252;2023-09-07T02:30:50;18.13;;;13.73;;
20619;SDS011;10469;42.720;23.252;2023-09-07T02:33:17;17.27;;;14.18;;
20619;SDS011;10469;42.720;23.252;2023-09-07T02:35:42;21.10;;;14.68;;
20619;SDS011;10469;42.720;23.252;2023-09-07T02:38:08;17.67;;;14.30;;
20619;SDS011;10469;42.720;23.252;2023-09-07T02:40:39;18.52;;;15.00;;
20619;SDS011;10469;42.720;23.252;2023-09-07T02:43:06;20.25;;;14.48;;
20619;SDS011;10469;42.720;23.252;2023-09-07T02:45:32;15.98;;;13.88;;
20619;SDS011;10469;42.720;23.252;2023-09-07T02:47:57;19.33;;;15.02;;
20619;SDS011;10469;42.720;23.252;2023-09-07T02:50:23;17.33;;;14.48;;
20619;SDS011;10469;42.720;23.252;2023-09-07T02:52:48;16.02;;;14.27;;
20619;SDS011;10469;42.720;23.252;2023-09-07T02:55:14;26.63;;;15.40;;
20619;SDS011;10469;42.720;23.252;2023-09-07T02:57:40;19.40;;;14.48;;
20619;SDS011;10469;42.720;23.252;2023-09-07T03:00:06;23.17;;;15.20;;
20619;SDS011;10469;42.720;23.252;2023-09-07T03:02:36;19.88;;;14.75;;
20619;SDS011;10469;42.720;23.252;2023-09-07T03:05:02;25.40;;;15.40;;
20619;SDS011;10469;42.720;23.252;2023-09-07T03:07:32;17.67;;;15.77;;
20619;SDS011;10469;42.720;23.252;2023-09-07T03:09:59;19.40;;;14.52;;
20619;SDS011;10469;42.720;23.252;2023-09-07T03:12:26;17.70;;;15.27;;
20619;SDS011;10469;42.720;23.252;2023-09-07T03:14:53;24.10;;;16.20;;
20619;SDS011;10469;42.720;23.252;2023-09-07T03:17:18;25.70;;;16.42;;
20619;SDS011;10469;42.720;23.252;2023-09-07T03:19:48;20.80;;;15.43;;
20619;SDS011;10469;42.720;23.252;2023-09-07T03:22:14;23.50;;;16.23;;
20619;SDS011;10469;42.720;23.252;2023-09-07T03:24:40;20.85;;;15.75;;
20619;SDS011;10469;42.720;23.252;2023-09-07T03:27:06;21.63;;;16.45;;
20619;SDS011;10469;42.720;23.252;2023-09-07T03:29:32;25.23;;;16.92;;
20619;SDS011;10469;42.720;23.252;2023-09-07T03:32:01;20.73;;;16.20;;
20619;SDS011;10469;42.720;23.252;2023-09-07T03:34:27;19.35;;;16.40;;
20619;SDS011;10469;42.720;23.252;2023-09-07T03:36:53;20.67;;;17.00;;
20619;SDS011;10469;42.720;23.252;2023-09-07T03:39:19;19.38;;;16.60;;
20619;SDS011;10469;42.720;23.252;2023-09-07T03:41:47;19.00;;;16.23;;
20619;SDS011;10469;42.720;23.252;2023-09-07T03:44:13;19.08;;;16.60;;
20619;SDS011;10469;42.720;23.252;2023-09-07T03:46:38;27.33;;;16.45;;
20619;SDS011;10469;42.720;23.252;2023-09-07T03:49:04;24.65;;;17.02;;
20619;SDS011;10469;42.720;23.252;2023-09-07T03:51:30;21.23;;;16.48;;
20619;SDS011;10469;42.720;23.252;2023-09-07T03:53:56;22.38;;;17.33;;
20619;SDS011;10469;42.720;23.252;2023-09-07T03:56:21;22.55;;;17.30;;
20619;SDS011;10469;42.720;23.252;2023-09-07T03:58:47;24.75;;;17.58;;
20619;SDS011;10469;42.720;23.252;2023-09-07T04:01:13;22.48;;;18.00;;
20619;SDS011;10469;42.720;23.252;2023-09-07T04:03:39;23.90;;;18.00;;
20619;SDS011;10469;42.720;23.252;2023-09-07T04:06:07;22.60;;;17.60;;
20619;SDS011;10469;42.720;23.252;2023-09-07T04:08:33;24.90;;;18.65;;
20619;SDS011;10469;42.720;23.252;2023-09-07T04:11:04;24.98;;;19.65;;
20619;SDS011;10469;42.720;23.252;2023-09-07T04:13:30;30.00;;;18.05;;
20619;SDS011;10469;42.720;23.252;2023-09-07T04:15:56;23.20;;;18.23;;
20619;SDS011;10469;42.720;23.252;2023-09-07T04:18:21;23.08;;;18.13;;
20619;SDS011;10469;42.720;23.252;2023-09-07T04:20:47;27.23;;;18.35;;
20619;SDS011;10469;42.720;23.252;2023-09-07T04:23:12;23.00;;;18.38;;
20619;SDS011;10469;42.720;23.252;2023-09-07T04:25:38;23.73;;;18.60;;
20619;SDS011;10469;42.720;23.252;2023-09-07T04:28:04;21.25;;;17.83;;
20619;SDS011;10469;42.720;23.252;2023-09-07T04:30:31;27.42;;;17.92;;
20619;SDS011;10469;42.720;23.252;2023-09-07T04:32:57;24.10;;;18.02;;
20619;SDS011;10469;42.720;23.252;2023-09-07T04:35:28;23.27;;;17.63;;
20619;SDS011;10469;42.720;23.252;2023-09-07T04:37:55;22.38;;;17.80;;
20619;SDS011;10469;42.720;23.252;2023-09-07T04:40:21;22.88;;;18.50;;
20619;SDS011;10469;42.720;23.252;2023-09-07T04:42:49;30.20;;;17.77;;
20619;SDS011;10469;42.720;23.252;2023-09-07T04:45:15;22.42;;;17.90;;
20619;SDS011;10469;42.720;23.252;2023-09-07T04:47:40;23.05;;;18.52;;
20619;SDS011;10469;42.720;23.252;2023-09-07T04:50:06;23.52;;;18.10;;
20619;SDS011;10469;42.720;23.252;2023-09-07T04:52:32;22.95;;;18.15;;
20619;SDS011;10469;42.720;23.252;2023-09-07T04:55:00;22.35;;;18.13;;
20619;SDS011;10469;42.720;23.252;2023-09-07T04:57:26;23.17;;;19.38;;
20619;SDS011;10469;42.720;23.252;2023-09-07T04:59:51;24.10;;;20.45;;
20619;SDS011;10469;42.720;23.252;2023-09-07T05:02:17;25.05;;;19.88;;
20619;SDS011;10469;42.720;23.252;2023-09-07T05:04:42;23.30;;;19.70;;
20619;SDS011;10469;42.720;23.252;2023-09-07T05:07:09;22.00;;;19.60;;
20619;SDS011;10469;42.720;23.252;2023-09-07T05:09:34;27.00;;;18.75;;
20619;SDS011;10469;42.720;23.252;2023-09-07T05:12:00;31.67;;;20.60;;
20619;SDS011;10469;42.720;23.252;2023-09-07T05:14:26;32.03;;;20.40;;
20619;SDS011;10469;42.720;23.252;2023-09-07T05:16:52;22.63;;;18.67;;
20619;SDS011;10469;42.720;23.252;2023-09-07T05:19:18;29.70;;;19.45;;
20619;SDS011;10469;42.720;23.252;2023-09-07T05:21:43;28.95;;;20.23;;
20619;SDS011;10469;42.720;23.252;2023-09-07T05:24:12;26.40;;;19.83;;
20619;SDS011;10469;42.720;23.252;2023-09-07T05:26:38;29.42;;;20.80;;
20619;SDS011;10469;42.720;23.252;2023-09-07T05:29:04;25.90;;;20.13;;
20619;SDS011;10469;42.720;23.252;2023-09-07T05:31:30;25.70;;;20.42;;
20619;SDS011;10469;42.720;23.252;2023-09-07T05:33:55;27.85;;;19.67;;
20619;SDS011;10469;42.720;23.252;2023-09-07T05:36:21;26.38;;;19.73;;
20619;SDS011;10469;42.720;23.252;2023-09-07T05:38:47;25.05;;;20.23;;
20619;SDS011;10469;42.720;23.252;2023-09-07T05:41:12;26.48;;;21.48;;
20619;SDS011;10469;42.720;23.252;2023-09-07T05:43:38;26.45;;;21.83;;
20619;SDS011;10469;42.720;23.252;2023-09-07T05:46:04;25.17;;;21.25;;
20619;SDS011;10469;42.720;23.252;2023-09-07T05:48:29;24.45;;;20.05;;
20619;SDS011;10469;42.720;23.252;2023-09-07T05:50:55;24.00;;;18.23;;
20619;SDS011;10469;42.720;23.252;2023-09-07T05:53:21;22.92;;;16.98;;
20619;SDS011;10469;42.720;23.252;2023-09-07T05:55:47;28.23;;;17.83;;
20619;SDS011;10469;42.720;23.252;2023-09-07T05:58:12;22.35;;;17.00;;
20619;SDS011;10469;42.720;23.252;2023-09-07T06:00:39;23.35;;;15.48;;
20619;SDS011;10469;42.720;23.252;2023-09-07T06:03:06;18.98;;;15.45;;
20619;SDS011;10469;42.720;23.252;2023-09-07T06:05:34;24.60;;;14.70;;
20619;SDS011;10469;42.720;23.252;2023-09-07T06:08:04;19.05;;;13.75;;
20619;SDS011;10469;42.720;23.252;2023-09-07T06:10:34;19.17;;;14.13;;
20619;SDS011;10469;42.720;23.252;2023-09-07T06:12:59;20.40;;;14.80;;
20619;SDS011;10469;42.720;23.252;2023-09-07T06:15:25;18.55;;;12.60;;
20619;SDS011;10469;42.720;23.252;2023-09-07T06:17:52;24.00;;;13.32;;
20619;SDS011;10469;42.720;23.252;2023-09-07T06:20:18;16.88;;;11.63;;
20619;SDS011;10469;42.720;23.252;2023-09-07T06:22:44;13.52;;;10.63;;
20619;SDS011;10469;42.720;23.252;2023-09-07T06:25:10;13.43;;;10.38;;
20619;SDS011;10469;42.720;23.252;2023-09-07T06:27:36;19.00;;;9.93;;
20619;SDS011;10469;42.720;23.252;2023-09-07T06:30:03;13.95;;;9.52;;
20619;SDS011;10469;42.720;23.252;2023-09-07T06:32:30;13.25;;;9.70;;
20619;SDS011;10469;42.720;23.252;2023-09-07T06:34:56;14.15;;;9.65;;
20619;SDS011;10469;42.720;23.252;2023-09-07T06:37:21;11.45;;;9.23;;
20619;SDS011;10469;42.720;23.252;2023-09-07T06:39:49;11.10;;;9.50;;
20619;SDS011;10469;42.720;23.252;2023-09-07T06:42:15;14.40;;;9.75;;
20619;SDS011;10469;42.720;23.252;2023-09-07T06:44:41;11.70;;;9.18;;
20619;SDS011;10469;42.720;23.252;2023-09-07T06:47:08;12.23;;;9.60;;
20619;SDS011;10469;42.720;23.252;2023-09-07T06:49:33;17.92;;;9.98;;
20619;SDS011;10469;42.720;23.252;2023-09-07T06:51:59;11.02;;;8.73;;
20619;SDS011;10469;42.720;23.252;2023-09-07T06:54:27;13.73;;;8.85;;
20619;SDS011;10469;42.720;23.252;2023-09-07T06:56:53;13.95;;;10.57;;
20619;SDS011;10469;42.720;23.252;2023-09-07T06:59:19;13.70;;;9.43;;
20619;SDS011;10469;42.720;23.252;2023-09-07T07:02:12;10.32;;;8.32;;
20619;SDS011;10469;42.720;23.252;2023-09-07T07:07:41;15.15;;;7.60;;
20619;SDS011;10469;42.720;23.252;2023-09-07T07:10:07;11.27;;;7.97;;
20619;SDS011;10469;42.720;23.252;2023-09-07T07:12:33;9.57;;;7.65;;
20619;SDS011;10469;42.720;23.252;2023-09-07T07:15:08;12.98;;;8.40;;
20619;SDS011;10469;42.720;23.252;2023-09-07T07:17:40;10.85;;;7.75;;
20619;SDS011;10469;42.720;23.252;2023-09-07T07:20:12;10.50;;;7.65;;
20619;SDS011;10469;42.720;23.252;2023-09-07T07:22:54;16.70;;;8.40;;
20619;SDS011;10469;42.720;23.252;2023-09-07T07:25:21;10.77;;;7.88;;
20619;SDS011;10469;42.720;23.252;2023-09-07T07:28:04;13.73;;;8.40;;
20619;SDS011;10469;42.720;23.252;2023-09-07T07:30:32;10.32;;;8.13;;
20619;SDS011;10469;42.720;23.252;2023-09-07T07:33:01;11.68;;;8.57;;
20619;SDS011;10469;42.720;23.252;2023-09-07T07:35:29;11.52;;;7.72;;
20619;SDS011;10469;42.720;23.252;2023-09-07T07:37:58;13.40;;;8.38;;
20619;SDS011;10469;42.720;23.252;2023-09-07T07:40:23;13.63;;;8.35;;
20619;SDS011;10469;42.720;23.252;2023-09-07T07:42:50;13.10;;;8.43;;
20619;SDS011;10469;42.720;23.252;2023-09-07T07:45:17;12.38;;;8.45;;
20619;SDS011;10469;42.720;23.252;2023-09-07T07:47:45;16.70;;;7.93;;
20619;SDS011;10469;42.720;23.252;2023-09-07T07:50:11;11.13;;;7.57;;
20619;SDS011;10469;42.720;23.252;2023-09-07T07:52:37;14.82;;;7.93;;
20619;SDS011;10469;42.720;23.252;2023-09-07T07:55:03;10.05;;;6.90;;
20619;SDS011;10469;42.720;23.252;2023-09-07T07:57:29;11.30;;;6.80;;
20619;SDS011;10469;42.720;23.252;2023-09-07T07:59:55;11.65;;;7.10;;
20619;SDS011;10469;42.720;23.252;2023-09-07T08:02:21;14.48;;;7.15;;
20619;SDS011;10469;42.720;23.252;2023-09-07T08:04:47;8.00;;;6.50;;
20619;SDS011;10469;42.720;23.252;2023-09-07T08:07:12;8.73;;;6.78;;
20619;SDS011;10469;42.720;23.252;2023-09-07T08:09:38;7.80;;;6.65;;
20619;SDS011;10469;42.720;23.252;2023-09-07T08:12:04;7.40;;;5.90;;
20619;SDS011;10469;42.720;23.252;2023-09-07T08:14:30;10.00;;;6.40;;
20619;SDS011;10469;42.720;23.252;2023-09-07T08:16:56;9.57;;;6.72;;
20619;SDS011;10469;42.720;23.252;2023-09-07T08:19:23;10.00;;;7.07;;
20619;SDS011;10469;42.720;23.252;2023-09-07T08:21:50;10.30;;;6.18;;
20619;SDS011;10469;42.720;23.252;2023-09-07T08:24:24;11.90;;;6.05;;
20619;SDS011;10469;42.720;23.252;2023-09-07T08:26:49;9.32;;;6.00;;
20619;SDS011;10469;42.720;23.252;2023-09-07T08:29:16;7.18;;;5.45;;
20619;SDS011;10469;42.720;23.252;2023-09-07T08:31:41;10.73;;;5.60;;
20619;SDS011;10469;42.720;23.252;2023-09-07T08:34:09;8.65;;;5.88;;
20619;SDS011;10469;42.720;23.252;2023-09-07T08:36:36;6.97;;;6.00;;
20619;SDS011;10469;42.720;23.252;2023-09-07T08:39:05;7.88;;;6.05;;
20619;SDS011;10469;42.720;23.252;2023-09-07T08:41:38;11.10;;;5.72;;
20619;SDS011;10469;42.720;23.252;2023-09-07T08:44:18;6.05;;;5.25;;
20619;SDS011;10469;42.720;23.252;2023-09-07T08:46:45;7.70;;;5.47;;
20619;SDS011;10469;42.720;23.252;2023-09-07T08:49:14;8.52;;;6.13;;
20619;SDS011;10469;42.720;23.252;2023-09-07T08:51:44;8.32;;;5.78;;
20619;SDS011;10469;42.720;23.252;2023-09-07T08:54:10;9.27;;;5.80;;
20619;SDS011;10469;42.720;23.252;2023-09-07T08:56:37;8.48;;;5.50;;
20619;SDS011;10469;42.720;23.252;2023-09-07T08:59:03;9.60;;;5.88;;
20619;SDS011;10469;42.720;23.252;2023-09-07T09:01:29;8.60;;;5.18;;
20619;SDS011;10469;42.720;23.252;2023-09-07T09:03:59;8.15;;;5.47;;
20619;SDS011;10469;42.720;23.252;2023-09-07T09:06:25;10.45;;;5.30;;
20619;SDS011;10469;42.720;23.252;2023-09-07T09:08:54;8.13;;;5.75;;
20619;SDS011;10469;42.720;23.252;2023-09-07T09:11:21;7.00;;;6.20;;
20619;SDS011;10469;42.720;23.252;2023-09-07T09:13:52;6.80;;;5.82;;
20619;SDS011;10469;42.720;23.252;2023-09-07T09:16:18;8.85;;;5.82;;
20619;SDS011;10469;42.720;23.252;2023-09-07T09:18:52;11.50;;;5.60;;
20619;SDS011;10469;42.720;23.252;2023-09-07T09:21:18;7.72;;;5.85;;
20619;SDS011;10469;42.720;23.252;2023-09-07T09:23:46;6.82;;;5.15;;
20619;SDS011;10469;42.720;23.252;2023-09-07T09:26:14;8.75;;;5.43;;
20619;SDS011;10469;42.720;23.252;2023-09-07T09:28:40;5.93;;;4.85;;
20619;SDS011;10469;42.720;23.252;2023-09-07T09:31:06;7.78;;;5.60;;
20619;SDS011;10469;42.720;23.252;2023-09-07T09:33:37;15.93;;;6.22;;
20619;SDS011;10469;42.720;23.252;2023-09-07T09:36:07;9.52;;;5.60;;
20619;SDS011;10469;42.720;23.252;2023-09-07T09:38:33;10.13;;;5.28;;
20619;SDS011;10469;42.720;23.252;2023-09-07T09:40:59;8.38;;;4.93;;
20619;SDS011;10469;42.720;23.252;2023-09-07T09:43:26;7.75;;;5.40;;
20619;SDS011;10469;42.720;23.252;2023-09-07T09:45:52;8.13;;;5.10;;
20619;SDS011;10469;42.720;23.252;2023-09-07T09:48:21;11.43;;;5.35;;
20619;SDS011;10469;42.720;23.252;2023-09-07T09:50:48;6.68;;;4.65;;
20619;SDS011;10469;42.720;23.252;2023-09-07T09:53:17;6.38;;;4.35;;
20619;SDS011;10469;42.720;23.252;2023-09-07T09:55:45;5.47;;;4.50;;
20619;SDS011;10469;42.720;23.252;2023-09-07T09:58:12;4.53;;;4.13;;
20619;SDS011;10469;42.720;23.252;2023-09-07T10:00:40;8.98;;;4.53;;
20619;SDS011;10469;42.720;23.252;2023-09-07T10:03:09;8.15;;;4.68;;
20619;SDS011;10469;42.720;23.252;2023-09-07T10:05:37;6.82;;;4.55;;
20619;SDS011;10469;42.720;23.252;2023-09-07T10:08:07;6.13;;;4.10;;
20619;SDS011;10469;42.720;23.252;2023-09-07T10:10:43;6.70;;;4.35;;
20619;SDS011;10469;42.720;23.252;2023-09-07T10:13:13;5.85;;;4.82;;
20619;SDS011;10469;42.720;23.252;2023-09-07T10:15:40;7.22;;;4.90;;
20619;SDS011;10469;42.720;23.252;2023-09-07T10:18:09;8.35;;;4.88;;
20619;SDS011;10469;42.720;23.252;2023-09-07T10:23:40;8.68;;;5.32;;
20619;SDS011;10469;42.720;23.252;2023-09-07T10:26:15;8.05;;;5.30;;
20619;SDS011;10469;42.720;23.252;2023-09-07T10:28:42;6.07;;;4.75;;
20619;SDS011;10469;42.720;23.252;2023-09-07T10:33:42;6.15;;;5.22;;
20619;SDS011;10469;42.720;23.252;2023-09-07T10:36:08;11.52;;;5.50;;
20619;SDS011;10469;42.720;23.252;2023-09-07T10:38:44;7.75;;;4.35;;
20619;SDS011;10469;42.720;23.252;2023-09-07T10:41:10;5.93;;;4.30;;
20619;SDS011;10469;42.720;23.252;2023-09-07T10:43:36;5.47;;;3.83;;
20619;SDS011;10469;42.720;23.252;2023-09-07T10:46:13;5.38;;;4.20;;
20619;SDS011;10469;42.720;23.252;2023-09-07T10:48:39;7.60;;;4.45;;
20619;SDS011;10469;42.720;23.252;2023-09-07T10:51:05;5.88;;;4.38;;
20619;SDS011;10469;42.720;23.252;2023-09-07T10:53:31;6.00;;;4.80;;
20619;SDS011;10469;42.720;23.252;2023-09-07T10:56:04;7.68;;;4.45;;
20619;SDS011;10469;42.720;23.252;2023-09-07T10:58:33;12.38;;;4.80;;
20619;SDS011;10469;42.720;23.252;2023-09-07T11:01:01;8.05;;;4.68;;
20619;SDS011;10469;42.720;23.252;2023-09-07T11:03:28;9.43;;;4.70;;
20619;SDS011;10469;42.720;23.252;2023-09-07T11:05:59;8.25;;;4.85;;
20619;SDS011;10469;42.720;23.252;2023-09-07T11:08:35;5.75;;;4.60;;
20619;SDS011;10469;42.720;23.252;2023-09-07T11:11:04;8.65;;;5.03;;
20619;SDS011;10469;42.720;23.252;2023-09-07T11:13:30;5.25;;;4.72;;
20619;SDS011;10469;42.720;23.252;2023-09-07T11:15:56;5.55;;;4.88;;
20619;SDS011;10469;42.720;23.252;2023-09-07T11:18:23;10.20;;;5.20;;
20619;SDS011;10469;42.720;23.252;2023-09-07T11:20:50;10.55;;;4.70;;
20619;SDS011;10469;42.720;23.252;2023-09-07T11:23:17;8.25;;;4.70;;
20619;SDS011;10469;42.720;23.252;2023-09-07T11:25:43;12.07;;;4.57;;
20619;SDS011;10469;42.720;23.252;2023-09-07T11:28:09;10.43;;;4.90;;
20619;SDS011;10469;42.720;23.252;2023-09-07T11:30:48;9.20;;;4.70;;
20619;SDS011;10469;42.720;23.252;2023-09-07T11:33:17;8.07;;;4.88;;
20619;SDS011;10469;42.720;23.252;2023-09-07T11:35:42;7.80;;;4.60;;
20619;SDS011;10469;42.720;23.252;2023-09-07T11:38:08;17.45;;;5.20;;
20619;SDS011;10469;42.720;23.252;2023-09-07T11:40:37;7.90;;;4.60;;
20619;SDS011;10469;42.720;23.252;2023-09-07T11:43:03;5.35;;;4.22;;
20619;SDS011;10469;42.720;23.252;2023-09-07T11:45:28;9.85;;;5.15;;
20619;SDS011;10469;42.720;23.252;2023-09-07T11:47:54;13.95;;;4.97;;
20619;SDS011;10469;42.720;23.252;2023-09-07T11:50:22;6.35;;;4.97;;
20619;SDS011;10469;42.720;23.252;2023-09-07T11:52:49;7.78;;;4.93;;
20619;SDS011;10469;42.720;23.252;2023-09-07T11:55:15;8.07;;;4.93;;
20619;SDS011;10469;42.720;23.252;2023-09-07T11:57:41;8.77;;;4.22;;
20619;SDS011;10469;42.720;23.252;2023-09-07T12:00:06;6.45;;;4.40;;
20619;SDS011;10469;42.720;23.252;2023-09-07T12:02:35;5.25;;;4.75;;
20619;SDS011;10469;42.720;23.252;2023-09-07T12:05:00;8.45;;;4.80;;
20619;SDS011;10469;42.720;23.252;2023-09-07T12:07:28;5.07;;;4.32;;
20619;SDS011;10469;42.720;23.252;2023-09-07T12:09:54;5.60;;;4.70;;
20619;SDS011;10469;42.720;23.252;2023-09-07T12:12:22;9.52;;;4.65;;
20619;SDS011;10469;42.720;23.252;2023-09-07T12:14:48;7.57;;;4.38;;
20619;SDS011;10469;42.720;23.252;2023-09-07T12:17:13;5.13;;;4.45;;
20619;SDS011;10469;42.720;23.252;2023-09-07T12:19:39;6.65;;;4.30;;
20619;SDS011;10469;42.720;23.252;2023-09-07T12:22:07;11.00;;;4.50;;
20619;SDS011;10469;42.720;23.252;2023-09-07T12:24:33;6.40;;;4.68;;
20619;SDS011;10469;42.720;23.252;2023-09-07T12:26:58;8.60;;;4.38;;
20619;SDS011;10469;42.720;23.252;2023-09-07T12:29:25;6.88;;;4.55;;
20619;SDS011;10469;42.720;23.252;2023-09-07T12:31:50;6.40;;;4.38;;
20619;SDS011;10469;42.720;23.252;2023-09-07T12:34:16;6.82;;;4.80;;
20619;SDS011;10469;42.720;23.252;2023-09-07T12:36:42;8.70;;;4.75;;
20619;SDS011;10469;42.720;23.252;2023-09-07T12:39:07;9.73;;;4.30;;
20619;SDS011;10469;42.720;23.252;2023-09-07T12:41:33;9.13;;;4.50;;
20619;SDS011;10469;42.720;23.252;2023-09-07T12:43:59;7.40;;;4.97;;
20619;SDS011;10469;42.720;23.252;2023-09-07T12:46:24;5.18;;;4.50;;
20619;SDS011;10469;42.720;23.252;2023-09-07T12:48:50;10.57;;;4.88;;
20619;SDS011;10469;42.720;23.252;2023-09-07T12:51:15;5.88;;;4.15;;
20619;SDS011;10469;42.720;23.252;2023-09-07T12:53:41;6.78;;;4.57;;
20619;SDS011;10469;42.720;23.252;2023-09-07T12:56:07;10.48;;;4.95;;
20619;SDS011;10469;42.720;23.252;2023-09-07T12:58:32;7.30;;;4.72;;
20619;SDS011;10469;42.720;23.252;2023-09-07T13:00:58;5.22;;;4.72;;
20619;SDS011;10469;42.720;23.252;2023-09-07T13:03:23;6.80;;;4.45;;
20619;SDS011;10469;42.720;23.252;2023-09-07T13:05:49;8.05;;;3.85;;
20619;SDS011;10469;42.720;23.252;2023-09-07T13:08:14;12.50;;;4.13;;
20619;SDS011;10469;42.720;23.252;2023-09-07T13:10:40;8.60;;;4.63;;
20619;SDS011;10469;42.720;23.252;2023-09-07T13:13:06;9.20;;;4.25;;
20619;SDS011;10469;42.720;23.252;2023-09-07T13:15:32;5.07;;;4.40;;
20619;SDS011;10469;42.720;23.252;2023-09-07T13:17:59;7.22;;;4.45;;
20619;SDS011;10469;42.720;23.252;2023-09-07T13:20:25;7.95;;;4.07;;
20619;SDS011;10469;42.720;23.252;2023-09-07T13:22:50;6.75;;;4.20;;
20619;SDS011;10469;42.720;23.252;2023-09-07T13:25:17;12.43;;;4.38;;
20619;SDS011;10469;42.720;23.252;2023-09-07T13:27:42;9.73;;;4.28;;
20619;SDS011;10469;42.720;23.252;2023-09-07T13:30:08;4.63;;;4.20;;
20619;SDS011;10469;42.720;23.252;2023-09-07T13:32:34;6.68;;;4.88;;
20619;SDS011;10469;42.720;23.252;2023-09-07T13:35:00;8.80;;;4.50;;
20619;SDS011;10469;42.720;23.252;2023-09-07T13:37:25;5.60;;;4.70;;
20619;SDS011;10469;42.720;23.252;2023-09-07T13:39:51;5.72;;;4.47;;
20619;SDS011;10469;42.720;23.252;2023-09-07T13:42:17;7.03;;;4.20;;
20619;SDS011;10469;42.720;23.252;2023-09-07T13:44:42;4.80;;;4.32;;
20619;SDS011;10469;42.720;23.252;2023-09-07T13:47:10;12.65;;;4.80;;
20619;SDS011;10469;42.720;23.252;2023-09-07T13:49:36;5.35;;;4.40;;
20619;SDS011;10469;42.720;23.252;2023-09-07T13:52:02;7.07;;;4.35;;
20619;SDS011;10469;42.720;23.252;2023-09-07T13:54:28;6.82;;;4.28;;
20619;SDS011;10469;42.720;23.252;2023-09-07T13:56:54;7.95;;;4.47;;
20619;SDS011;10469;42.720;23.252;2023-09-07T13:59:20;8.30;;;4.70;;
20619;SDS011;10469;42.720;23.252;2023-09-07T14:01:45;6.65;;;4.53;;
20619;SDS011;10469;42.720;23.252;2023-09-07T14:04:11;9.27;;;4.90;;
20619;SDS011;10469;42.720;23.252;2023-09-07T14:06:36;6.35;;;4.97;;
20619;SDS011;10469;42.720;23.252;2023-09-07T14:09:02;8.32;;;5.25;;
20619;SDS011;10469;42.720;23.252;2023-09-07T14:11:28;8.73;;;4.70;;
20619;SDS011;10469;42.720;23.252;2023-09-07T14:13:53;7.25;;;4.35;;
20619;SDS011;10469;42.720;23.252;2023-09-07T14:16:19;9.10;;;5.55;;
20619;SDS011;10469;42.720;23.252;2023-09-07T14:18:46;6.75;;;4.18;;
20619;SDS011;10469;42.720;23.252;2023-09-07T14:21:15;8.77;;;4.95;;
20619;SDS011;10469;42.720;23.252;2023-09-07T14:23:41;8.65;;;5.25;;
20619;SDS011;10469;42.720;23.252;2023-09-07T14:26:08;6.50;;;4.68;;
20619;SDS011;10469;42.720;23.252;2023-09-07T14:28:34;8.55;;;4.65;;